sensor_id;sensor_type;location;lat;lon;timestamp;pressure;altitude;pressure_sealevel;temperature
19666;BMP180;9980;51.020;7.772;2023-11-22T00:01:31;98249.00;;;9.50
19666;BMP180;9980;51.020;7.772;2023-11-22T00:04:01;98260.00;;;9.50
19666;BMP180;9980;51.020;7.772;2023-11-22T00:06:28;98264.00;;;9.40
19666;BMP180;9980;51.020;7.772;2023-11-22T00:08:56;98271.00;;;9.40
19666;BMP180;9980;51.020;7.772;2023-11-22T00:11:23;98268.00;;;9.40
19666;BMP180;9980;51.020;7.772;2023-11-22T00:13:51;98273.00;;;9.40
19666;BMP180;9980;51.020;7.772;2023-11-22T00:16:24;98266.00;;;9.40
19666;BMP180;9980;51.020;7.772;2023-11-22T00:18:51;98252.00;;;9.40
19666;BMP180;9980;51.020;7.772;2023-11-22T00:21:18;98270.00;;;9.40
19666;BMP180;9980;51.020;7.772;2023-11-22T00:23:47;98269.00;;;9.40
19666;BMP180;9980;51.020;7.772;2023-11-22T00:26:14;98286.00;;;9.40
19666;BMP180;9980;51.020;7.772;2023-11-22T00:28:51;98279.00;;;9.40
19666;BMP180;9980;51.020;7.772;2023-11-22T00:31:20;98282.00;;;9.40
19666;BMP180;9980;51.020;7.772;2023-11-22T00:33:49;98288.00;;;9.40
19666;BMP180;9980;51.020;7.772;2023-11-22T00:36:16;98275.00;;;9.40
19666;BMP180;9980;51.020;7.772;2023-11-22T00:38:43;98279.00;;;9.40
19666;BMP180;9980;51.020;7.772;2023-11-22T00:41:10;98280.00;;;9.50
19666;BMP180;9980;51.020;7.772;2023-11-22T00:43:38;98284.00;;;9.50
19666;BMP180;9980;51.020;7.772;2023-11-22T00:46:05;98296.00;;;9.40
19666;BMP180;9980;51.020;7.772;2023-11-22T00:48:33;98296.00;;;9.50
19666;BMP180;9980;51.020;7.772;2023-11-22T00:51:01;98297.00;;;9.50
19666;BMP180;9980;51.020;7.772;2023-11-22T00:53:35;98289.00;;;9.50
19666;BMP180;9980;51.020;7.772;2023-11-22T00:56:06;98302.00;;;9.50
19666;BMP180;9980;51.020;7.772;2023-11-22T00:58:33;98291.00;;;9.50
19666;BMP180;9980;51.020;7.772;2023-11-22T01:01:00;98281.00;;;9.40
19666;BMP180;9980;51.020;7.772;2023-11-22T01:03:27;98297.00;;;9.50
19666;BMP180;9980;51.020;7.772;2023-11-22T01:05:54;98298.00;;;9.50
19666;BMP180;9980;51.020;7.772;2023-11-22T01:08:21;98316.00;;;9.50
19666;BMP180;9980;51.020;7.772;2023-11-22T01:10:49;98303.00;;;9.50
19666;BMP180;9980;51.020;7.772;2023-11-22T01:13:16;98325.00;;;9.50
19666;BMP180;9980;51.020;7.772;2023-11-22T01:15:43;98320.00;;;9.50
19666;BMP180;9980;51.020;7.772;2023-11-22T01:18:11;98316.00;;;9.50
19666;BMP180;9980;51.020;7.772;2023-11-22T01:20:38;98321.00;;;9.50
19666;BMP180;9980;51.020;7.772;2023-11-22T01:23:05;98317.00;;;9.50
19666;BMP180;9980;51.020;7.772;2023-11-22T01:25:32;98317.00;;;9.50
19666;BMP180;9980;51.020;7.772;2023-11-22T01:27:59;98326.00;;;9.40
19666;BMP180;9980;51.020;7.772;2023-11-22T01:30:27;98326.00;;;9.40
19666;BMP180;9980;51.020;7.772;2023-11-22T01:32:55;98342.00;;;9.40
19666;BMP180;9980;51.020;7.772;2023-11-22T01:35:22;98330.00;;;9.40
19666;BMP180;9980;51.020;7.772;2023-11-22T01:37:50;98330.00;;;9.40
19666;BMP180;9980;51.020;7.772;2023-11-22T01:40:18;98322.00;;;9.30
19666;BMP180;9980;51.020;7.772;2023-11-22T01:42:46;98318.00;;;9.30
19666;BMP180;9980;51.020;7.772;2023-11-22T01:45:13;98324.00;;;9.30
19666;BMP180;9980;51.020;7.772;2023-11-22T01:47:41;98332.00;;;9.30
19666;BMP180;9980;51.020;7.772;2023-11-22T01:50:10;98335.00;;;9.30
19666;BMP180;9980;51.020;7.772;2023-11-22T01:52:39;98319.00;;;9.30
19666;BMP180;9980;51.020;7.772;2023-11-22T01:55:07;98333.00;;;9.30
19666;BMP180;9980;51.020;7.772;2023-11-22T01:57:36;98345.00;;;9.30
19666;BMP180;9980;51.020;7.772;2023-11-22T02:00:05;98345.00;;;9.20
19666;BMP180;9980;51.020;7.772;2023-11-22T02:02:41;98347.00;;;9.20
19666;BMP180;9980;51.020;7.772;2023-11-22T02:05:09;98339.00;;;9.20
19666;BMP180;9980;51.020;7.772;2023-11-22T02:07:38;98335.00;;;9.20
19666;BMP180;9980;51.020;7.772;2023-11-22T02:10:07;98343.00;;;9.20
19666;BMP180;9980;51.020;7.772;2023-11-22T02:12:34;98330.00;;;9.20
19666;BMP180;9980;51.020;7.772;2023-11-22T02:15:03;98316.00;;;9.20
19666;BMP180;9980;51.020;7.772;2023-11-22T02:17:31;98338.00;;;9.20
19666;BMP180;9980;51.020;7.772;2023-11-22T02:19:58;98343.00;;;9.20
19666;BMP180;9980;51.020;7.772;2023-11-22T02:22:25;98335.00;;;9.10
19666;BMP180;9980;51.020;7.772;2023-11-22T02:24:52;98340.00;;;9.10
19666;BMP180;9980;51.020;7.772;2023-11-22T02:27:19;98354.00;;;9.10
19666;BMP180;9980;51.020;7.772;2023-11-22T02:29:46;98351.00;;;9.10
19666;BMP180;9980;51.020;7.772;2023-11-22T02:32:13;98366.00;;;9.10
19666;BMP180;9980;51.020;7.772;2023-11-22T02:34:40;98364.00;;;9.10
19666;BMP180;9980;51.020;7.772;2023-11-22T02:37:07;98373.00;;;9.10
19666;BMP180;9980;51.020;7.772;2023-11-22T02:39:57;98371.00;;;9.00
19666;BMP180;9980;51.020;7.772;2023-11-22T02:42:25;98391.00;;;9.10
19666;BMP180;9980;51.020;7.772;2023-11-22T02:44:52;98384.00;;;9.10
19666;BMP180;9980;51.020;7.772;2023-11-22T02:47:19;98386.00;;;9.10
19666;BMP180;9980;51.020;7.772;2023-11-22T02:49:46;98388.00;;;9.10
19666;BMP180;9980;51.020;7.772;2023-11-22T02:52:13;98402.00;;;9.10
19666;BMP180;9980;51.020;7.772;2023-11-22T02:54:43;98409.00;;;9.10
19666;BMP180;9980;51.020;7.772;2023-11-22T02:57:12;98404.00;;;9.00
19666;BMP180;9980;51.020;7.772;2023-11-22T02:59:44;98409.00;;;9.00
19666;BMP180;9980;51.020;7.772;2023-11-22T03:02:12;98399.00;;;9.00
19666;BMP180;9980;51.020;7.772;2023-11-22T03:04:39;98406.00;;;9.00
19666;BMP180;9980;51.020;7.772;2023-11-22T03:07:06;98405.00;;;8.90
19666;BMP180;9980;51.020;7.772;2023-11-22T03:09:33;98406.00;;;8.90
19666;BMP180;9980;51.020;7.772;2023-11-22T03:12:00;98393.00;;;8.90
19666;BMP180;9980;51.020;7.772;2023-11-22T03:14:29;98397.00;;;8.80
19666;BMP180;9980;51.020;7.772;2023-11-22T03:16:57;98412.00;;;8.80
19666;BMP180;9980;51.020;7.772;2023-11-22T03:19:24;98418.00;;;8.70
19666;BMP180;9980;51.020;7.772;2023-11-22T03:21:51;98410.00;;;8.70
19666;BMP180;9980;51.020;7.772;2023-11-22T03:24:18;98408.00;;;8.60
19666;BMP180;9980;51.020;7.772;2023-11-22T03:26:48;98405.00;;;8.60
19666;BMP180;9980;51.020;7.772;2023-11-22T03:29:15;98420.00;;;8.60
19666;BMP180;9980;51.020;7.772;2023-11-22T03:31:45;98442.00;;;8.50
19666;BMP180;9980;51.020;7.772;2023-11-22T03:34:14;98416.00;;;8.50
19666;BMP180;9980;51.020;7.772;2023-11-22T03:36:41;98436.00;;;8.50
19666;BMP180;9980;51.020;7.772;2023-11-22T03:39:08;98421.00;;;8.40
19666;BMP180;9980;51.020;7.772;2023-11-22T03:41:37;98428.00;;;8.40
19666;BMP180;9980;51.020;7.772;2023-11-22T03:44:05;98426.00;;;8.30
19666;BMP180;9980;51.020;7.772;2023-11-22T03:46:36;98427.00;;;8.20
19666;BMP180;9980;51.020;7.772;2023-11-22T03:49:05;98442.00;;;8.20
19666;BMP180;9980;51.020;7.772;2023-11-22T03:51:35;98461.00;;;8.10
19666;BMP180;9980;51.020;7.772;2023-11-22T03:54:03;98437.00;;;8.10
19666;BMP180;9980;51.020;7.772;2023-11-22T03:56:31;98443.00;;;8.10
19666;BMP180;9980;51.020;7.772;2023-11-22T03:58:58;98449.00;;;8.00
19666;BMP180;9980;51.020;7.772;2023-11-22T04:01:25;98449.00;;;8.00
19666;BMP180;9980;51.020;7.772;2023-11-22T04:03:52;98438.00;;;8.00
19666;BMP180;9980;51.020;7.772;2023-11-22T04:06:20;98439.00;;;7.90
19666;BMP180;9980;51.020;7.772;2023-11-22T04:08:48;98473.00;;;7.90
19666;BMP180;9980;51.020;7.772;2023-11-22T04:11:16;98469.00;;;7.90
19666;BMP180;9980;51.020;7.772;2023-11-22T04:13:45;98463.00;;;7.80
19666;BMP180;9980;51.020;7.772;2023-11-22T04:16:12;98475.00;;;7.80
19666;BMP180;9980;51.020;7.772;2023-11-22T04:18:41;98471.00;;;7.80
19666;BMP180;9980;51.020;7.772;2023-11-22T04:21:08;98480.00;;;7.80
19666;BMP180;9980;51.020;7.772;2023-11-22T04:23:36;98489.00;;;7.70
19666;BMP180;9980;51.020;7.772;2023-11-22T04:26:06;98506.00;;;7.70
19666;BMP180;9980;51.020;7.772;2023-11-22T04:28:34;98510.00;;;7.60
19666;BMP180;9980;51.020;7.772;2023-11-22T04:31:01;98502.00;;;7.60
19666;BMP180;9980;51.020;7.772;2023-11-22T04:33:28;98520.00;;;7.60
19666;BMP180;9980;51.020;7.772;2023-11-22T04:35:55;98525.00;;;7.50
19666;BMP180;9980;51.020;7.772;2023-11-22T04:38:23;98534.00;;;7.50
19666;BMP180;9980;51.020;7.772;2023-11-22T04:40:50;98529.00;;;7.40
19666;BMP180;9980;51.020;7.772;2023-11-22T04:43:17;98539.00;;;7.40
19666;BMP180;9980;51.020;7.772;2023-11-22T04:45:44;98547.00;;;7.40
19666;BMP180;9980;51.020;7.772;2023-11-22T04:48:11;98513.00;;;7.30
19666;BMP180;9980;51.020;7.772;2023-11-22T04:50:38;98535.00;;;7.30
19666;BMP180;9980;51.020;7.772;2023-11-22T04:53:05;98515.00;;;7.20
19666;BMP180;9980;51.020;7.772;2023-11-22T04:55:32;98515.00;;;7.20
19666;BMP180;9980;51.020;7.772;2023-11-22T04:57:59;98514.00;;;7.20
19666;BMP180;9980;51.020;7.772;2023-11-22T05:00:26;98516.00;;;7.10
19666;BMP180;9980;51.020;7.772;2023-11-22T05:02:53;98520.00;;;7.10
19666;BMP180;9980;51.020;7.772;2023-11-22T05:05:21;98511.00;;;7.00
19666;BMP180;9980;51.020;7.772;2023-11-22T05:07:48;98520.00;;;7.00
19666;BMP180;9980;51.020;7.772;2023-11-22T05:10:15;98520.00;;;7.00
19666;BMP180;9980;51.020;7.772;2023-11-22T05:12:43;98507.00;;;6.90
19666;BMP180;9980;51.020;7.772;2023-11-22T05:15:11;98515.00;;;6.90
19666;BMP180;9980;51.020;7.772;2023-11-22T05:17:38;98501.00;;;6.90
19666;BMP180;9980;51.020;7.772;2023-11-22T05:20:07;98505.00;;;6.80
19666;BMP180;9980;51.020;7.772;2023-11-22T05:22:37;98525.00;;;6.80
19666;BMP180;9980;51.020;7.772;2023-11-22T05:25:05;98522.00;;;6.80
19666;BMP180;9980;51.020;7.772;2023-11-22T05:27:33;98523.00;;;6.70
19666;BMP180;9980;51.020;7.772;2023-11-22T05:30:01;98529.00;;;6.70
19666;BMP180;9980;51.020;7.772;2023-11-22T05:32:28;98522.00;;;6.70
19666;BMP180;9980;51.020;7.772;2023-11-22T05:34:58;98530.00;;;6.60
19666;BMP180;9980;51.020;7.772;2023-11-22T05:37:25;98541.00;;;6.60
19666;BMP180;9980;51.020;7.772;2023-11-22T05:39:53;98538.00;;;6.50
19666;BMP180;9980;51.020;7.772;2023-11-22T05:42:20;98562.00;;;6.50
19666;BMP180;9980;51.020;7.772;2023-11-22T05:44:47;98572.00;;;6.50
19666;BMP180;9980;51.020;7.772;2023-11-22T05:47:14;98567.00;;;6.50
19666;BMP180;9980;51.020;7.772;2023-11-22T05:49:45;98569.00;;;6.40
19666;BMP180;9980;51.020;7.772;2023-11-22T05:52:12;98572.00;;;6.40
19666;BMP180;9980;51.020;7.772;2023-11-22T05:54:39;98570.00;;;6.30
19666;BMP180;9980;51.020;7.772;2023-11-22T05:57:06;98587.00;;;6.30
19666;BMP180;9980;51.020;7.772;2023-11-22T05:59:33;98578.00;;;6.30
19666;BMP180;9980;51.020;7.772;2023-11-22T06:02:00;98599.00;;;6.30
19666;BMP180;9980;51.020;7.772;2023-11-22T06:04:27;98594.00;;;6.20
19666;BMP180;9980;51.020;7.772;2023-11-22T06:06:54;98581.00;;;6.20
19666;BMP180;9980;51.020;7.772;2023-11-22T06:09:21;98582.00;;;6.20
19666;BMP180;9980;51.020;7.772;2023-11-22T06:11:49;98578.00;;;6.20
19666;BMP180;9980;51.020;7.772;2023-11-22T06:14:16;98589.00;;;6.10
19666;BMP180;9980;51.020;7.772;2023-11-22T06:16:44;98591.00;;;6.10
19666;BMP180;9980;51.020;7.772;2023-11-22T06:19:11;98578.00;;;6.10
19666;BMP180;9980;51.020;7.772;2023-11-22T06:21:38;98581.00;;;6.00
19666;BMP180;9980;51.020;7.772;2023-11-22T06:24:05;98583.00;;;6.00
19666;BMP180;9980;51.020;7.772;2023-11-22T06:26:35;98575.00;;;6.00
19666;BMP180;9980;51.020;7.772;2023-11-22T06:29:02;98569.00;;;5.90
19666;BMP180;9980;51.020;7.772;2023-11-22T06:31:29;98562.00;;;5.90
19666;BMP180;9980;51.020;7.772;2023-11-22T06:33:56;98571.00;;;5.90
19666;BMP180;9980;51.020;7.772;2023-11-22T06:36:23;98585.00;;;5.90
19666;BMP180;9980;51.020;7.772;2023-11-22T06:38:50;98582.00;;;5.80
19666;BMP180;9980;51.020;7.772;2023-11-22T06:41:17;98587.00;;;5.80
19666;BMP180;9980;51.020;7.772;2023-11-22T06:43:44;98595.00;;;5.80
19666;BMP180;9980;51.020;7.772;2023-11-22T06:46:11;98585.00;;;5.70
19666;BMP180;9980;51.020;7.772;2023-11-22T06:48:38;98596.00;;;5.70
19666;BMP180;9980;51.020;7.772;2023-11-22T06:51:06;98599.00;;;5.70
19666;BMP180;9980;51.020;7.772;2023-11-22T06:53:33;98598.00;;;5.70
19666;BMP180;9980;51.020;7.772;2023-11-22T06:56:00;98611.00;;;5.60
19666;BMP180;9980;51.020;7.772;2023-11-22T06:58:28;98589.00;;;5.60
19666;BMP180;9980;51.020;7.772;2023-11-22T07:00:54;98592.00;;;5.60
19666;BMP180;9980;51.020;7.772;2023-11-22T07:03:22;98584.00;;;5.50
19666;BMP180;9980;51.020;7.772;2023-11-22T07:05:49;98579.00;;;5.50
19666;BMP180;9980;51.020;7.772;2023-11-22T07:08:17;98567.00;;;5.50
19666;BMP180;9980;51.020;7.772;2023-11-22T07:10:44;98574.00;;;5.40
19666;BMP180;9980;51.020;7.772;2023-11-22T07:13:12;98563.00;;;5.40
19666;BMP180;9980;51.020;7.772;2023-11-22T07:15:42;98562.00;;;5.40
19666;BMP180;9980;51.020;7.772;2023-11-22T07:18:08;98563.00;;;5.40
19666;BMP180;9980;51.020;7.772;2023-11-22T07:20:37;98561.00;;;5.30
19666;BMP180;9980;51.020;7.772;2023-11-22T07:23:06;98562.00;;;5.30
19666;BMP180;9980;51.020;7.772;2023-11-22T07:25:33;98567.00;;;5.30
19666;BMP180;9980;51.020;7.772;2023-11-22T07:28:01;98566.00;;;5.20
19666;BMP180;9980;51.020;7.772;2023-11-22T07:30:27;98580.00;;;5.20
19666;BMP180;9980;51.020;7.772;2023-11-22T07:32:57;98584.00;;;5.20
19666;BMP180;9980;51.020;7.772;2023-11-22T07:35:26;98588.00;;;5.20
19666;BMP180;9980;51.020;7.772;2023-11-22T07:37:58;98587.00;;;5.20
19666;BMP180;9980;51.020;7.772;2023-11-22T07:40:25;98601.00;;;5.20
19666;BMP180;9980;51.020;7.772;2023-11-22T07:42:52;98600.00;;;5.10
19666;BMP180;9980;51.020;7.772;2023-11-22T07:45:19;98624.00;;;5.10
19666;BMP180;9980;51.020;7.772;2023-11-22T07:47:46;98618.00;;;5.10
19666;BMP180;9980;51.020;7.772;2023-11-22T07:50:14;98630.00;;;5.10
19666;BMP180;9980;51.020;7.772;2023-11-22T07:52:41;98653.00;;;5.10
19666;BMP180;9980;51.020;7.772;2023-11-22T07:55:09;98665.00;;;5.00
19666;BMP180;9980;51.020;7.772;2023-11-22T07:57:38;98669.00;;;5.00
19666;BMP180;9980;51.020;7.772;2023-11-22T08:00:06;98648.00;;;5.00
19666;BMP180;9980;51.020;7.772;2023-11-22T08:02:38;98653.00;;;5.00
19666;BMP180;9980;51.020;7.772;2023-11-22T08:05:13;98682.00;;;5.00
19666;BMP180;9980;51.020;7.772;2023-11-22T08:07:43;98675.00;;;5.00
19666;BMP180;9980;51.020;7.772;2023-11-22T08:10:15;98671.00;;;4.90
19666;BMP180;9980;51.020;7.772;2023-11-22T08:12:48;98671.00;;;4.90
19666;BMP180;9980;51.020;7.772;2023-11-22T08:15:17;98666.00;;;4.90
19666;BMP180;9980;51.020;7.772;2023-11-22T08:17:46;98694.00;;;4.90
19666;BMP180;9980;51.020;7.772;2023-11-22T08:20:13;98654.00;;;4.90
19666;BMP180;9980;51.020;7.772;2023-11-22T08:22:45;98666.00;;;4.90
19666;BMP180;9980;51.020;7.772;2023-11-22T08:25:13;98652.00;;;4.90
19666;BMP180;9980;51.020;7.772;2023-11-22T08:27:42;98638.00;;;4.90
19666;BMP180;9980;51.020;7.772;2023-11-22T08:30:10;98620.00;;;4.90
19666;BMP180;9980;51.020;7.772;2023-11-22T08:32:43;98631.00;;;4.90
19666;BMP180;9980;51.020;7.772;2023-11-22T08:35:11;98602.00;;;4.90
19666;BMP180;9980;51.020;7.772;2023-11-22T08:37:41;98621.00;;;4.90
19666;BMP180;9980;51.020;7.772;2023-11-22T08:40:10;98620.00;;;4.90
19666;BMP180;9980;51.020;7.772;2023-11-22T08:42:47;98614.00;;;4.90
19666;BMP180;9980;51.020;7.772;2023-11-22T08:45:15;98622.00;;;4.90
19666;BMP180;9980;51.020;7.772;2023-11-22T08:47:42;98636.00;;;5.00
19666;BMP180;9980;51.020;7.772;2023-11-22T08:50:10;98635.00;;;5.00
19666;BMP180;9980;51.020;7.772;2023-11-22T08:52:40;98652.00;;;5.00
19666;BMP180;9980;51.020;7.772;2023-11-22T08:55:09;98653.00;;;5.10
19666;BMP180;9980;51.020;7.772;2023-11-22T08:57:37;98650.00;;;5.10
19666;BMP180;9980;51.020;7.772;2023-11-22T09:00:05;98663.00;;;5.20
19666;BMP180;9980;51.020;7.772;2023-11-22T09:02:37;98671.00;;;5.30
19666;BMP180;9980;51.020;7.772;2023-11-22T09:05:06;98659.00;;;5.30
19666;BMP180;9980;51.020;7.772;2023-11-22T09:07:36;98678.00;;;5.40
19666;BMP180;9980;51.020;7.772;2023-11-22T09:10:06;98684.00;;;5.40
19666;BMP180;9980;51.020;7.772;2023-11-22T09:12:44;98695.00;;;5.50
19666;BMP180;9980;51.020;7.772;2023-11-22T09:15:12;98685.00;;;5.50
19666;BMP180;9980;51.020;7.772;2023-11-22T09:17:53;98688.00;;;5.60
19666;BMP180;9980;51.020;7.772;2023-11-22T09:20:20;98703.00;;;5.60
19666;BMP180;9980;51.020;7.772;2023-11-22T09:22:50;98723.00;;;5.70
19666;BMP180;9980;51.020;7.772;2023-11-22T09:25:23;98725.00;;;5.70
19666;BMP180;9980;51.020;7.772;2023-11-22T09:27:54;98705.00;;;5.80
19666;BMP180;9980;51.020;7.772;2023-11-22T09:30:31;98712.00;;;5.90
19666;BMP180;9980;51.020;7.772;2023-11-22T09:33:11;98696.00;;;6.00
19666;BMP180;9980;51.020;7.772;2023-11-22T09:35:44;98691.00;;;6.10
19666;BMP180;9980;51.020;7.772;2023-11-22T09:38:13;98694.00;;;6.20
19666;BMP180;9980;51.020;7.772;2023-11-22T09:40:46;98707.00;;;6.30
19666;BMP180;9980;51.020;7.772;2023-11-22T09:43:15;98695.00;;;6.40
19666;BMP180;9980;51.020;7.772;2023-11-22T09:45:45;98688.00;;;6.50
19666;BMP180;9980;51.020;7.772;2023-11-22T09:48:20;98680.00;;;6.60
19666;BMP180;9980;51.020;7.772;2023-11-22T09:50:57;98696.00;;;6.70
19666;BMP180;9980;51.020;7.772;2023-11-22T09:53:40;98673.00;;;6.70
19666;BMP180;9980;51.020;7.772;2023-11-22T09:56:12;98681.00;;;6.80
19666;BMP180;9980;51.020;7.772;2023-11-22T09:58:43;98671.00;;;6.90
19666;BMP180;9980;51.020;7.772;2023-11-22T10:01:11;98673.00;;;7.00
19666;BMP180;9980;51.020;7.772;2023-11-22T10:03:40;98700.00;;;7.10
19666;BMP180;9980;51.020;7.772;2023-11-22T10:06:08;98683.00;;;7.10
19666;BMP180;9980;51.020;7.772;2023-11-22T10:08:35;98689.00;;;7.20
19666;BMP180;9980;51.020;7.772;2023-11-22T10:11:04;98679.00;;;7.20
19666;BMP180;9980;51.020;7.772;2023-11-22T10:13:31;98692.00;;;7.30
19666;BMP180;9980;51.020;7.772;2023-11-22T10:16:10;98682.00;;;7.30
19666;BMP180;9980;51.020;7.772;2023-11-22T10:18:44;98676.00;;;7.40
19666;BMP180;9980;51.020;7.772;2023-11-22T10:23:48;98686.00;;;7.60
19666;BMP180;9980;51.020;7.772;2023-11-22T10:26:16;98680.00;;;7.60
19666;BMP180;9980;51.020;7.772;2023-11-22T10:28:44;98710.00;;;7.70
19666;BMP180;9980;51.020;7.772;2023-11-22T10:31:11;98693.00;;;7.70
19666;BMP180;9980;51.020;7.772;2023-11-22T10:33:42;98696.00;;;7.70
19666;BMP180;9980;51.020;7.772;2023-11-22T10:36:10;98686.00;;;7.80
19666;BMP180;9980;51.020;7.772;2023-11-22T10:38:39;98688.00;;;7.80
19666;BMP180;9980;51.020;7.772;2023-11-22T10:41:08;98687.00;;;7.80
19666;BMP180;9980;51.020;7.772;2023-11-22T10:43:35;98672.00;;;7.90
19666;BMP180;9980;51.020;7.772;2023-11-22T10:46:04;98677.00;;;8.00
19666;BMP180;9980;51.020;7.772;2023-11-22T10:48:37;98670.00;;;8.00
19666;BMP180;9980;51.020;7.772;2023-11-22T10:51:05;98679.00;;;8.10
19666;BMP180;9980;51.020;7.772;2023-11-22T10:53:37;98678.00;;;8.10
19666;BMP180;9980;51.020;7.772;2023-11-22T10:56:13;98683.00;;;8.20
19666;BMP180;9980;51.020;7.772;2023-11-22T10:58:50;98680.00;;;8.20
19666;BMP180;9980;51.020;7.772;2023-11-22T11:01:19;98691.00;;;8.20
19666;BMP180;9980;51.020;7.772;2023-11-22T11:04:01;98687.00;;;8.30
19666;BMP180;9980;51.020;7.772;2023-11-22T11:06:33;98688.00;;;8.40
19666;BMP180;9980;51.020;7.772;2023-11-22T11:09:05;98677.00;;;8.40
19666;BMP180;9980;51.020;7.772;2023-11-22T11:11:35;98688.00;;;8.50
19666;BMP180;9980;51.020;7.772;2023-11-22T11:14:05;98696.00;;;8.50
19666;BMP180;9980;51.020;7.772;2023-11-22T11:16:37;98706.00;;;8.50
19666;BMP180;9980;51.020;7.772;2023-11-22T11:19:06;98707.00;;;8.60
19666;BMP180;9980;51.020;7.772;2023-11-22T11:21:34;98704.00;;;8.60
19666;BMP180;9980;51.020;7.772;2023-11-22T11:24:05;98690.00;;;8.60
19666;BMP180;9980;51.020;7.772;2023-11-22T11:26:33;98683.00;;;8.60
19666;BMP180;9980;51.020;7.772;2023-11-22T11:29:03;98689.00;;;8.60
19666;BMP180;9980;51.020;7.772;2023-11-22T11:31:33;98681.00;;;8.70
19666;BMP180;9980;51.020;7.772;2023-11-22T11:34:06;98681.00;;;8.70
19666;BMP180;9980;51.020;7.772;2023-11-22T11:36:33;98693.00;;;8.70
19666;BMP180;9980;51.020;7.772;2023-11-22T11:39:12;98679.00;;;8.80
19666;BMP180;9980;51.020;7.772;2023-11-22T11:41:42;98677.00;;;8.80
19666;BMP180;9980;51.020;7.772;2023-11-22T11:44:10;98676.00;;;8.80
19666;BMP180;9980;51.020;7.772;2023-11-22T11:46:39;98681.00;;;8.80
19666;BMP180;9980;51.020;7.772;2023-11-22T11:49:11;98658.00;;;8.90
19666;BMP180;9980;51.020;7.772;2023-11-22T11:51:40;98661.00;;;9.00
19666;BMP180;9980;51.020;7.772;2023-11-22T11:54:07;98668.00;;;9.00
19666;BMP180;9980;51.020;7.772;2023-11-22T11:56:36;98658.00;;;9.00
19666;BMP180;9980;51.020;7.772;2023-11-22T11:59:04;98667.00;;;9.00
19666;BMP180;9980;51.020;7.772;2023-11-22T12:01:32;98658.00;;;9.00
19666;BMP180;9980;51.020;7.772;2023-11-22T12:04:02;98652.00;;;9.10
19666;BMP180;9980;51.020;7.772;2023-11-22T12:06:30;98659.00;;;9.10
19666;BMP180;9980;51.020;7.772;2023-11-22T12:09:03;98683.00;;;9.10
19666;BMP180;9980;51.020;7.772;2023-11-22T12:11:30;98664.00;;;9.10
19666;BMP180;9980;51.020;7.772;2023-11-22T12:13:58;98670.00;;;9.10
19666;BMP180;9980;51.020;7.772;2023-11-22T12:16:26;98665.00;;;9.10
19666;BMP180;9980;51.020;7.772;2023-11-22T12:18:54;98662.00;;;9.10
19666;BMP180;9980;51.020;7.772;2023-11-22T12:21:23;98649.00;;;9.10
19666;BMP180;9980;51.020;7.772;2023-11-22T12:23:50;98628.00;;;9.00
19666;BMP180;9980;51.020;7.772;2023-11-22T12:26:20;98638.00;;;9.00
19666;BMP180;9980;51.020;7.772;2023-11-22T12:28:49;98621.00;;;9.00
19666;BMP180;9980;51.020;7.772;2023-11-22T12:31:30;98619.00;;;9.00
19666;BMP180;9980;51.020;7.772;2023-11-22T12:34:04;98614.00;;;9.00
19666;BMP180;9980;51.020;7.772;2023-11-22T12:36:33;98583.00;;;9.00
19666;BMP180;9980;51.020;7.772;2023-11-22T12:39:02;98578.00;;;9.00
19666;BMP180;9980;51.020;7.772;2023-11-22T12:41:31;98559.00;;;9.00
19666;BMP180;9980;51.020;7.772;2023-11-22T12:44:06;98559.00;;;9.10
19666;BMP180;9980;51.020;7.772;2023-11-22T12:49:13;98531.00;;;9.10
19666;BMP180;9980;51.020;7.772;2023-11-22T12:51:49;98538.00;;;9.10
19666;BMP180;9980;51.020;7.772;2023-11-22T12:54:16;98519.00;;;9.20
19666;BMP180;9980;51.020;7.772;2023-11-22T12:56:50;98541.00;;;9.20
19666;BMP180;9980;51.020;7.772;2023-11-22T12:59:20;98534.00;;;9.20
19666;BMP180;9980;51.020;7.772;2023-11-22T13:01:47;98530.00;;;9.20
19666;BMP180;9980;51.020;7.772;2023-11-22T13:04:15;98541.00;;;9.20
19666;BMP180;9980;51.020;7.772;2023-11-22T13:06:43;98543.00;;;9.20
19666;BMP180;9980;51.020;7.772;2023-11-22T13:09:10;98545.00;;;9.20
19666;BMP180;9980;51.020;7.772;2023-11-22T13:11:43;98558.00;;;9.20
19666;BMP180;9980;51.020;7.772;2023-11-22T13:14:11;98558.00;;;9.30
19666;BMP180;9980;51.020;7.772;2023-11-22T13:16:41;98555.00;;;9.30
19666;BMP180;9980;51.020;7.772;2023-11-22T13:19:09;98551.00;;;9.30
19666;BMP180;9980;51.020;7.772;2023-11-22T13:21:38;98542.00;;;9.30
19666;BMP180;9980;51.020;7.772;2023-11-22T13:24:07;98536.00;;;9.30
19666;BMP180;9980;51.020;7.772;2023-11-22T13:26:35;98511.00;;;9.30
19666;BMP180;9980;51.020;7.772;2023-11-22T13:29:02;98529.00;;;9.30
19666;BMP180;9980;51.020;7.772;2023-11-22T13:31:29;98527.00;;;9.30
19666;BMP180;9980;51.020;7.772;2023-11-22T13:33:56;98531.00;;;9.40
19666;BMP180;9980;51.020;7.772;2023-11-22T13:36:23;98529.00;;;9.40
19666;BMP180;9980;51.020;7.772;2023-11-22T13:38:50;98529.00;;;9.40
19666;BMP180;9980;51.020;7.772;2023-11-22T13:41:17;98522.00;;;9.40
19666;BMP180;9980;51.020;7.772;2023-11-22T13:43:45;98526.00;;;9.40
19666;BMP180;9980;51.020;7.772;2023-11-22T13:46:14;98541.00;;;9.40
19666;BMP180;9980;51.020;7.772;2023-11-22T13:48:42;98527.00;;;9.40
19666;BMP180;9980;51.020;7.772;2023-11-22T13:51:09;98502.00;;;9.40
19666;BMP180;9980;51.020;7.772;2023-11-22T13:53:38;98523.00;;;9.40
19666;BMP180;9980;51.020;7.772;2023-11-22T13:56:10;98537.00;;;9.40
19666;BMP180;9980;51.020;7.772;2023-11-22T13:58:39;98544.00;;;9.40
19666;BMP180;9980;51.020;7.772;2023-11-22T14:01:06;98551.00;;;9.40
19666;BMP180;9980;51.020;7.772;2023-11-22T14:03:38;98553.00;;;9.40
19666;BMP180;9980;51.020;7.772;2023-11-22T14:06:06;98564.00;;;9.40
19666;BMP180;9980;51.020;7.772;2023-11-22T14:08:33;98570.00;;;9.40
19666;BMP180;9980;51.020;7.772;2023-11-22T14:11:01;98576.00;;;9.40
19666;BMP180;9980;51.020;7.772;2023-11-22T14:13:28;98569.00;;;9.40
19666;BMP180;9980;51.020;7.772;2023-11-22T14:15:55;98576.00;;;9.40
19666;BMP180;9980;51.020;7.772;2023-11-22T14:18:22;98570.00;;;9.40
19666;BMP180;9980;51.020;7.772;2023-11-22T14:20:50;98570.00;;;9.30
19666;BMP180;9980;51.020;7.772;2023-11-22T14:23:16;98578.00;;;9.30
19666;BMP180;9980;51.020;7.772;2023-11-22T14:25:44;98566.00;;;9.30
19666;BMP180;9980;51.020;7.772;2023-11-22T14:28:12;98578.00;;;9.20
19666;BMP180;9980;51.020;7.772;2023-11-22T14:30:40;98577.00;;;9.20
19666;BMP180;9980;51.020;7.772;2023-11-22T14:33:08;98579.00;;;9.10
19666;BMP180;9980;51.020;7.772;2023-11-22T14:35:36;98577.00;;;9.10
19666;BMP180;9980;51.020;7.772;2023-11-22T14:38:04;98574.00;;;9.10
19666;BMP180;9980;51.020;7.772;2023-11-22T14:40:33;98571.00;;;9.00
19666;BMP180;9980;51.020;7.772;2023-11-22T14:43:02;98572.00;;;9.00
19666;BMP180;9980;51.020;7.772;2023-11-22T14:45:31;98573.00;;;9.00
19666;BMP180;9980;51.020;7.772;2023-11-22T14:47:59;98591.00;;;8.90